Time;durP1;ratioP1;P1;durP2;ratioP2;P2;SDS_P1;SDS_P2;PMS_P1;PMS_P2;Temp;Humidity;BMP_temperature;BMP_pressure;BME280_temperature;BME280_humidity;BME280_pressure;Samples;Min_cycle;Max_cycle;Signal;HPM_P1;HPM_P2
2021/06/08 02:21:34;;;;;;;39.65;13.27;;;11.80;99.90;;;;;;5547781;24;20053;31
2021/06/08 02:24:33;;;;;;;42.90;14.70;;;11.80;99.90;;;;;;4754234;30;20087;-96
2021/06/08 02:27:28;;;;;;;30.75;14.75;;;11.80;99.90;;;;;;4738691;30;20485;-96
2021/06/08 02:30:06;;;;;;;37.78;14.60;;;11.70;99.90;;;;;;4754091;30;20058;-96
2021/06/08 02:32:37;;;;;;;28.95;14.60;;;11.80;99.90;;;;;;4752818;30;20052;-94
2021/06/08 02:35:10;;;;;;;33.50;14.48;;;11.80;99.90;;;;;;4739196;30;20068;-95
2021/06/08 02:37:55;;;;;;;39.92;14.77;;;11.70;99.90;;;;;;4739437;30;20067;-94
2021/06/08 02:51:42;;;;;;;;;;;11.50;99.90;;;;;;4713446;30;20048;-96
2021/06/08 02:54:16;;;;;;;79.30;14.07;;;11.60;99.90;;;;;;4673904;30;20012;-96
2021/06/08 03:19:42;;;;;;;;;;;;;;;;;;;;;
2021/06/08 03:47:49;;;;;;;19.48;10.85;;;11.40;99.90;;;;;;5633971;24;20066;-96
2021/06/08 03:53:47;;;;;;;63.00;12.00;;;11.40;99.90;;;;;;4820443;29;20065;-95
2021/06/08 05:38:56;;;;;;;;;;;;;;;;;;;;;
2021/06/08 05:42:13;;;;;;;;;;;;;;;;;;;;;
2021/06/08 05:49:09;;;;;;;4.43;4.10;;;12.50;99.90;;;;;;4697802;30;20095;-96
2021/06/08 05:55:45;;;;;;;3.90;3.60;;;12.70;99.90;;;;;;4680628;30;20041;-95
2021/06/08 06:13:01;;;;;;;21.67;7.57;;;13.10;99.90;;;;;;4766208;30;20133;-96
2021/06/08 07:07:54;;;;;;;6.30;4.63;;;14.10;99.90;;;;;;4229656;27;26630184;-94
2021/06/08 07:10:25;;;;;;;4.85;4.35;;;14.00;99.90;;;;;;5139597;27;20043;-94
2021/06/08 07:12:54;;;;;;;4.25;3.83;;;14.10;99.90;;;;;;5130340;27;20099;-92
2021/06/08 07:15:27;;;;;;;4.28;3.97;;;14.20;99.90;;;;;;5145323;27;20035;-92
2021/06/08 07:17:54;;;;;;;4.07;3.67;;;14.20;99.90;;;;;;5135747;27;20064;-94
2021/06/08 07:20:22;;;;;;;3.75;3.55;;;14.30;99.90;;;;;;5153793;27;20113;-94
2021/06/08 07:22:49;;;;;;;10.40;3.60;;;14.40;99.90;;;;;;5135805;27;20047;-95
2021/06/08 07:25:17;;;;;;;4.25;3.85;;;14.40;99.90;;;;;;5137297;27;20078;-93
2021/06/08 07:27:45;;;;;;;3.55;2.90;;;14.50;99.90;;;;;;5135347;27;20106;-93
2021/06/08 07:30:16;;;;;;;3.38;3.17;;;14.40;99.90;;;;;;5127947;27;20432;-96
2021/06/08 07:33:08;;;;;;;3.03;2.83;;;14.40;99.90;;;;;;5118741;27;20058;-94
2021/06/08 07:35:52;;;;;;;3.33;3.03;;;15.00;99.90;;;;;;5136777;27;20051;-93
2021/06/08 07:38:43;;;;;;;3.78;3.47;;;15.40;99.90;;;;;;5136362;27;20054;-93
2021/06/08 07:41:39;;;;;;;3.50;3.20;;;15.80;99.90;;;;;;5135400;27;20067;-94
2021/06/08 07:44:18;;;;;;;4.82;4.18;;;15.60;99.90;;;;;;5154445;27;20119;-94
2021/06/08 07:46:51;;;;;;;3.20;3.00;;;15.60;99.90;;;;;;5148940;27;20043;-95
2021/06/08 07:49:21;;;;;;;3.65;3.45;;;15.40;99.90;;;;;;5083302;27;20061;-95
2021/06/08 07:51:49;;;;;;;2.80;2.60;;;15.30;99.90;;;;;;5121085;27;20082;-95
2021/06/08 07:54:37;;;;;;;3.08;2.88;;;15.20;99.90;;;;;;5125919;27;20078;-93
2021/06/08 07:57:23;;;;;;;3.03;2.85;;;15.00;99.90;;;;;;5121106;27;20055;-92
2021/06/08 08:00:11;;;;;;;3.47;3.28;;;15.00;99.90;;;;;;5137877;27;20035;-92
2021/06/08 08:02:38;;;;;;;2.88;2.78;;;14.90;99.90;;;;;;5126762;27;20051;-93
2021/06/08 08:05:15;;;;;;;2.45;2.33;;;14.80;99.90;;;;;;5131962;27;20059;-93
2021/06/08 08:07:52;;;;;;;3.53;3.22;;;15.10;99.90;;;;;;5151416;27;20051;-94
2021/06/08 08:10:22;;;;;;;3.15;2.95;;;15.30;99.90;;;;;;5148199;27;20051;-92
2021/06/08 08:12:57;;;;;;;3.30;3.03;;;15.30;99.90;;;;;;5139568;27;20034;-96
2021/06/08 08:16:24;;;;;;;;;;;;;;;;;;;;;
2021/06/08 08:19:05;;;;;;;2.80;2.70;;;15.10;99.90;;;;;;5096378;27;20069;-93
2021/06/08 08:21:45;;;;;;;3.38;3.17;;;15.00;99.90;;;;;;5116416;27;20165;-94
2021/06/08 08:24:18;;;;;;;3.28;3.08;;;14.80;99.90;;;;;;5112073;27;20074;-93
2021/06/08 08:27:07;;;;;;;3.80;3.50;;;14.80;99.90;;;;;;5111305;27;20073;-96
2021/06/08 08:29:35;;;;;;;2.80;2.70;;;14.80;99.90;;;;;;5128309;27;20418;-93
2021/06/08 08:32:01;;;;;;;3.05;2.85;;;14.60;99.90;;;;;;5094965;27;20051;-94
2021/06/08 08:34:29;;;;;;;3.85;3.40;;;14.50;99.90;;;;;;5124820;27;20039;-93
2021/06/08 08:36:56;;;;;;;4.00;3.70;;;14.60;99.90;;;;;;5135554;27;20138;-90
2021/06/08 08:39:24;;;;;;;4.05;3.78;;;14.50;99.90;;;;;;5084936;27;20039;-92
2021/06/08 08:41:54;;;;;;;4.32;4.03;;;14.40;99.90;;;;;;5132914;27;20095;-94
2021/06/08 08:44:33;;;;;;;4.30;4.00;;;14.20;99.90;;;;;;5126877;27;20443;-91
2021/06/08 08:47:21;;;;;;;7.10;3.85;;;14.10;99.90;;;;;;5136843;27;20035;-94
2021/06/08 08:49:51;;;;;;;4.40;4.00;;;14.10;99.90;;;;;;5110493;27;20402;-93
2021/06/08 08:52:21;;;;;;;5.57;4.10;;;14.10;99.90;;;;;;5096148;27;20490;-93
2021/06/08 08:54:56;;;;;;;4.50;4.15;;;14.10;99.90;;;;;;5136085;27;20038;-94
2021/06/08 08:57:23;;;;;;;6.57;4.50;;;14.20;99.90;;;;;;5119158;27;20467;-94
2021/06/08 09:00:03;;;;;;;3.70;3.50;;;14.30;99.90;;;;;;5125318;27;20045;-94
2021/06/08 09:02:51;;;;;;;4.18;3.85;;;14.30;99.90;;;;;;5116001;27;20050;-93
2021/06/08 09:05:18;;;;;;;4.13;3.92;;;14.40;99.90;;;;;;5130424;27;20042;-93
2021/06/08 09:07:44;;;;;;;4.68;4.20;;;14.40;99.90;;;;;;5117384;27;20158;-94
2021/06/08 09:10:13;;;;;;;4.25;3.95;;;14.50;99.90;;;;;;5113458;28;20051;-95
2021/06/08 09:12:41;;;;;;;4.90;4.10;;;14.70;99.90;;;;;;5096467;28;20042;-94
2021/06/08 09:15:13;;;;;;;4.13;3.75;;;14.70;99.90;;;;;;5096939;28;20453;-95
2021/06/08 09:17:46;;;;;;;6.72;4.70;;;14.80;99.90;;;;;;5102120;28;20401;-95
2021/06/08 09:20:14;;;;;;;5.05;4.65;;;14.90;99.90;;;;;;5102703;28;20123;-95
2021/06/08 09:22:50;;;;;;;4.72;4.35;;;15.00;99.90;;;;;;5106954;28;20063;-95
2021/06/08 09:25:37;;;;;;;6.38;5.03;;;15.00;99.90;;;;;;5103545;28;20039;-96
2021/06/08 09:28:21;;;;;;;5.05;4.55;;;15.00;99.90;;;;;;5112968;28;20138;-96
2021/06/08 09:30:53;;;;;;;5.85;5.10;;;15.10;99.90;;;;;;5084360;28;20056;-96
2021/06/08 09:33:39;;;;;;;6.85;6.25;;;15.10;99.90;;;;;;5109804;28;20044;-95
2021/06/08 09:36:15;;;;;;;5.90;5.13;;;15.20;99.90;;;;;;5093163;28;20047;-95
2021/06/08 09:38:45;;;;;;;6.28;4.60;;;15.20;99.90;;;;;;5117996;28;20040;-96
2021/06/08 09:41:30;;;;;;;6.40;5.80;;;15.30;99.90;;;;;;5112592;28;20036;-96
2021/06/08 09:44:11;;;;;;;5.25;4.03;;;15.40;99.90;;;;;;5094265;28;20047;-95
2021/06/08 09:46:52;;;;;;;6.07;4.80;;;15.50;99.90;;;;;;5096470;28;20066;-95
2021/06/08 09:49:32;;;;;;;6.63;4.45;;;15.50;99.90;;;;;;5083325;28;20048;-94
2021/06/08 09:52:02;;;;;;;5.28;4.78;;;15.60;99.90;;;;;;5096970;28;20042;-95
2021/06/08 09:54:30;;;;;;;7.80;5.30;;;15.70;99.90;;;;;;5082988;28;20456;-94
2021/06/08 09:57:17;;;;;;;7.72;4.85;;;15.80;99.90;;;;;;5109812;28;20451;-95
2021/06/08 10:00:07;;;;;;;9.18;4.88;;;15.90;99.90;;;;;;5112130;28;20050;-95
2021/06/08 10:05:28;;;;;;;7.63;6.82;;;16.00;99.90;;;;;;5106009;28;20051;-95
2021/06/08 10:08:00;;;;;;;6.47;5.10;;;16.10;99.90;;;;;;5109636;27;20082;-93
2021/06/08 10:10:37;;;;;;;4.43;4.03;;;16.10;99.90;;;;;;5115145;27;20047;-95
2021/06/08 10:13:08;;;;;;;3.03;2.80;;;16.20;99.90;;;;;;5118303;27;20097;-96
2021/06/08 10:15:59;;;;;;;3.90;3.60;;;16.30;99.90;;;;;;5126139;27;20054;-95
2021/06/08 10:18:39;;;;;;;5.80;4.53;;;16.50;99.90;;;;;;5123192;27;20071;-95
2021/06/08 10:21:36;;;;;;;4.45;4.10;;;16.50;99.90;;;;;;5113031;27;20487;-96
2021/06/08 10:24:10;;;;;;;7.28;6.20;;;16.70;99.90;;;;;;5110109;27;20130;-96
2021/06/08 10:26:44;;;;;;;7.35;4.50;;;16.90;99.90;;;;;;5128754;27;20027;-95
2021/06/08 10:29:14;;;;;;;7.20;4.47;;;16.90;99.90;;;;;;5125476;27;20039;-96
2021/06/08 10:31:42;;;;;;;6.05;4.60;;;17.00;99.90;;;;;;5087499;27;20292;-96
2021/06/08 10:34:10;;;;;;;6.57;4.75;;;17.10;99.90;;;;;;5121051;27;20043;-96
2021/06/08 10:36:42;;;;;;;5.25;3.97;;;17.20;99.90;;;;;;5123270;27;20039;-95
2021/06/08 10:39:16;;;;;;;5.75;4.35;;;17.30;99.90;;;;;;5119993;27;20894;-94
2021/06/08 10:41:55;;;;;;;6.65;4.88;;;17.40;99.90;;;;;;5129221;27;20516;-95
2021/06/08 10:44:24;;;;;;;4.05;3.08;;;17.40;99.90;;;;;;5113870;27;20039;-95
2021/06/08 10:47:07;;;;;;;5.40;3.83;;;17.50;99.90;;;;;;5115214;27;20047;-94
2021/06/08 10:49:33;;;;;;;4.40;3.60;;;17.60;99.90;;;;;;5125764;27;20444;-95
2021/06/08 10:52:13;;;;;;;4.65;3.28;;;17.60;99.90;;;;;;5125102;27;20410;-95
2021/06/08 10:54:40;;;;;;;3.45;3.22;;;17.80;99.90;;;;;;5129963;27;20109;-93
2021/06/08 10:57:12;;;;;;;3.80;3.50;;;17.90;99.90;;;;;;5104638;28;20114;-95
2021/06/08 10:59:40;;;;;;;3.20;2.90;;;18.10;99.90;;;;;;5125389;27;20038;-93
2021/06/08 11:02:07;;;;;;;4.28;2.20;;;18.20;99.90;;;;;;5128309;27;20047;-94
2021/06/08 11:05:00;;;;;;;3.22;2.70;;;18.40;99.90;;;;;;5107281;28;20047;-94
2021/06/08 11:07:49;;;;;;;2.78;2.40;;;18.60;99.90;;;;;;5110323;27;20047;-95
2021/06/08 11:10:27;;;;;;;5.60;2.47;;;18.60;99.90;;;;;;5145152;27;20038;-94
2021/06/08 11:13:09;;;;;;;4.78;2.40;;;18.60;99.90;;;;;;5123655;27;20047;-95
2021/06/08 11:15:45;;;;;;;4.35;3.53;;;18.70;99.90;;;;;;5124790;27;20035;-96
2021/06/08 11:18:17;;;;;;;4.00;3.15;;;18.90;99.90;;;;;;5128362;27;20039;-95
2021/06/08 11:21:12;;;;;;;3.30;3.10;;;18.90;99.90;;;;;;5145423;27;20143;-94
2021/06/08 11:23:45;;;;;;;4.20;3.80;;;19.00;99.90;;;;;;5126639;27;20102;-95
2021/06/08 11:26:16;;;;;;;3.03;2.35;;;18.90;99.90;;;;;;5127295;27;20107;-95
2021/06/08 11:28:53;;;;;;;4.43;4.03;;;19.00;99.90;;;;;;5139974;27;20512;-96
2021/06/08 11:31:23;;;;;;;3.53;3.25;;;18.90;99.90;;;;;;5142309;27;20039;-94
2021/06/08 11:34:00;;;;;;;5.10;4.50;;;19.00;99.90;;;;;;5138623;27;20039;-95
2021/06/08 11:36:26;;;;;;;5.20;4.80;;;19.00;99.90;;;;;;5144260;27;20083;-95
2021/06/08 11:38:54;;;;;;;4.63;3.85;;;19.00;99.90;;;;;;5120181;28;20050;-95
2021/06/08 11:41:21;;;;;;;5.07;4.57;;;19.00;99.90;;;;;;5127689;27;20038;-95
2021/06/08 11:43:51;;;;;;;3.30;3.05;;;18.90;99.90;;;;;;5126468;27;20497;-96
2021/06/08 11:46:29;;;;;;;8.82;4.57;;;18.90;99.90;;;;;;5150816;27;20039;-94
2021/06/08 11:49:23;;;;;;;4.80;4.28;;;18.80;99.90;;;;;;5125762;27;20034;-96
2021/06/08 11:52:11;;;;;;;8.18;4.57;;;18.90;99.90;;;;;;5129951;27;20151;-96
2021/06/08 11:54:40;;;;;;;9.57;4.78;;;19.00;99.90;;;;;;5141754;27;20034;-95
2021/06/08 11:57:08;;;;;;;4.95;4.53;;;19.00;99.90;;;;;;5150477;27;20046;-96
2021/06/08 11:59:43;;;;;;;5.65;5.15;;;19.10;99.90;;;;;;5124078;27;20055;-95
2021/06/08 12:02:34;;;;;;;6.53;5.15;;;19.20;99.90;;;;;;5131796;27;20070;-95
2021/06/08 12:05:04;;;;;;;11.43;6.55;;;19.30;99.90;;;;;;5132979;27;20394;-94
2021/06/08 12:07:40;;;;;;;6.82;5.50;;;19.30;99.90;;;;;;5130020;27;20088;-95
2021/06/08 12:10:07;;;;;;;6.50;5.85;;;19.30;99.90;;;;;;5125383;27;20050;-95
2021/06/08 12:12:50;;;;;;;4.85;4.20;;;19.30;99.90;;;;;;5161439;27;20038;-96
2021/06/08 12:15:26;;;;;;;6.95;5.50;;;19.40;99.90;;;;;;5142335;27;20394;-96
2021/06/08 12:18:07;;;;;;;4.72;3.70;;;19.40;99.90;;;;;;5139157;27;20095;-96
2021/06/08 12:20:38;;;;;;;5.30;3.85;;;19.40;99.90;;;;;;5140776;27;20070;-95
2021/06/08 12:23:05;;;;;;;6.93;4.00;;;19.40;99.90;;;;;;5165006;27;20044;-93
2021/06/08 12:25:45;;;;;;;4.43;3.80;;;19.50;99.90;;;;;;5126960;27;20076;-96
2021/06/08 12:28:11;;;;;;;;;;;19.50;99.90;;;;;;5121042;27;20095;-94
2021/06/08 12:30:37;;;;;;;2.42;2.22;;;19.60;99.90;;;;;;5138622;27;19942;-95
2021/06/08 12:33:07;;;;;;;2.38;2.17;;;19.60;99.90;;;;;;5109540;27;20471;-95
2021/06/08 12:35:47;;;;;;;3.08;2.70;;;19.60;99.90;;;;;;5131732;27;20039;-93
2021/06/08 12:38:22;;;;;;;3.35;2.42;;;19.70;99.90;;;;;;5130031;27;20043;-95
2021/06/08 12:41:08;;;;;;;2.80;2.53;;;19.70;99.90;;;;;;5132872;27;20129;-96
2021/06/08 12:43:47;;;;;;;7.28;3.78;;;19.70;99.90;;;;;;5112519;27;20055;-93
2021/06/08 12:46:24;;;;;;;5.07;4.40;;;19.80;99.90;;;;;;5134433;27;20039;-94
2021/06/08 12:49:04;;;;;;;8.55;5.07;;;19.80;99.90;;;;;;5136844;27;20042;-96
2021/06/08 12:51:31;;;;;;;;;;;20.00;99.90;;;;;;5135920;27;20517;-94
2021/06/08 12:53:57;;;;;;;6.57;4.50;;;20.10;99.90;;;;;;5120851;27;20390;-94
2021/06/08 12:56:28;;;;;;;4.50;3.75;;;20.30;99.90;;;;;;5120532;27;20026;-96
2021/06/08 12:58:55;;;;;;;4.28;3.50;;;20.30;99.90;;;;;;5142904;27;20038;-96
2021/06/08 13:01:21;;;;;;;5.05;4.32;;;20.40;99.90;;;;;;5124670;27;20043;-95
2021/06/08 13:03:51;;;;;;;7.13;4.00;;;20.50;99.90;;;;;;5128072;27;20474;-95
2021/06/08 13:06:27;;;;;;;5.65;3.97;;;20.60;99.90;;;;;;5138381;27;20046;-95
2021/06/08 13:08:56;;;;;;;5.82;3.58;;;20.50;99.90;;;;;;5108832;28;20086;-95
2021/06/08 13:11:38;;;;;;;4.13;3.70;;;20.60;99.90;;;;;;5094935;28;20050;-95
2021/06/08 13:14:10;;;;;;;3.58;3.28;;;20.50;99.90;;;;;;5097433;28;20051;-96
2021/06/08 13:16:39;;;;;;;6.22;3.03;;;20.30;99.90;;;;;;5107144;28;20580;-93
2021/06/08 13:19:20;;;;;;;4.30;3.65;;;20.30;99.90;;;;;;5109275;28;20445;-94
2021/06/08 13:21:52;;;;;;;3.92;3.63;;;20.40;99.90;;;;;;5106471;28;20056;-95
2021/06/08 13:24:25;;;;;;;4.18;2.70;;;20.30;99.90;;;;;;5114948;28;20474;-95
2021/06/08 13:27:20;;;;;;;;;;;;;;;;;;;;;
2021/06/08 13:30:08;;;;;;;7.15;3.45;;;20.20;99.90;;;;;;5099573;28;20051;-95
2021/06/08 13:32:35;;;;;;;1.85;1.60;;;20.30;99.90;;;;;;5094631;28;20047;-96
2021/06/08 13:35:16;;;;;;;2.38;2.17;;;20.20;99.90;;;;;;5094432;28;20089;-94
2021/06/08 13:37:51;;;;;;;1.73;1.55;;;20.80;99.90;;;;;;5091438;28;20051;-96
2021/06/08 13:40:21;;;;;;;1.63;1.55;;;21.10;99.90;;;;;;5114082;28;20133;-95
2021/06/08 13:43:08;;;;;;;2.20;1.70;;;20.90;99.90;;;;;;5098493;28;20079;-96
2021/06/08 13:45:44;;;;;;;1.63;1.48;;;21.20;99.90;;;;;;5093499;28;20044;-93
2021/06/08 13:48:17;;;;;;;2.22;1.10;;;21.70;99.90;;;;;;5094438;28;20055;-95
2021/06/08 13:51:06;;;;;;;3.35;1.20;;;21.50;99.90;;;;;;5097153;28;20078;-94
2021/06/08 13:53:35;;;;;;;2.45;1.13;;;21.40;99.90;;;;;;5106938;28;20040;-95
2021/06/08 13:56:19;;;;;;;1.67;1.55;;;21.80;99.90;;;;;;5086500;28;20055;-94
2021/06/08 14:02:08;;;;;;;1.45;1.30;;;23.00;99.90;;;;;;5103655;28;20048;-93
2021/06/08 14:04:48;;;;;;;2.75;0.93;;;23.30;99.90;;;;;;5096072;28;20051;-94
2021/06/08 14:07:17;;;;;;;1.83;1.63;;;23.90;99.90;;;;;;5100592;28;20032;-95
2021/06/08 14:09:50;;;;;;;4.25;2.03;;;23.70;99.90;;;;;;5077375;28;20480;-95
2021/06/08 14:12:20;;;;;;;4.63;2.03;;;23.60;99.90;;;;;;5088623;28;21192;-94
2021/06/08 14:15:14;;;;;;;;;;;;;;;;;;;;;
2021/06/08 14:17:47;;;;;;;4.13;1.98;;;24.30;99.90;;;;;;5117212;28;20075;-96
2021/06/08 14:20:20;;;;;;;2.53;2.30;;;24.20;99.90;;;;;;5116890;28;20040;-96
2021/06/08 14:23:01;;;;;;;6.13;2.13;;;24.20;99.90;;;;;;5079777;28;20047;-96
2021/06/08 14:25:29;;;;;;;3.33;2.10;;;24.00;99.90;;;;;;5073770;28;20064;-96
2021/06/08 14:28:34;;;;;;;;;;;;;;;;;;;;;
2021/06/08 14:31:08;;;;;;;5.10;2.30;;;24.20;99.90;;;;;;5102477;28;20059;-96
2021/06/08 14:34:08;;;;;;;6.72;2.28;;;23.70;99.90;;;;;;5108915;28;20048;-96
2021/06/08 14:36:40;;;;;;;1.92;1.80;;;23.30;99.90;;;;;;5089107;28;20058;-95
2021/06/08 14:39:12;;;;;;;1.50;1.40;;;23.90;99.90;;;;;;5083490;28;20044;-96
2021/06/08 14:41:38;;;;;;;3.70;1.55;;;24.00;99.90;;;;;;5086300;28;20060;-96
2021/06/08 14:44:04;;;;;;;2.53;1.20;;;24.00;99.90;;;;;;5089419;28;20062;-94
2021/06/08 14:46:46;;;;;;;1.35;1.00;;;24.20;99.00;;;;;;5093032;28;20043;-96
2021/06/08 14:49:18;;;;;;;1.85;1.10;;;23.90;95.30;;;;;;5085717;28;20051;-96
2021/06/08 14:52:32;;;;;;;2.08;1.05;;;23.90;97.50;;;;;;5098264;28;20479;-96
2021/06/08 14:54:58;;;;;;;2.28;1.40;;;23.80;99.50;;;;;;5108683;28;20051;-96
2021/06/08 14:57:39;;;;;;;1.30;1.20;;;23.90;99.90;;;;;;5099356;28;20077;-96
2021/06/08 15:00:15;;;;;;;4.78;1.40;;;24.00;99.90;;;;;;5113232;28;20086;-94
2021/06/08 15:02:59;;;;;;;1.42;1.27;;;24.00;99.90;;;;;;5101932;28;20044;-96
2021/06/08 15:05:25;;;;;;;1.85;1.50;;;23.80;99.60;;;;;;5097543;28;20047;-96
2021/06/08 15:07:58;;;;;;;2.90;1.15;;;23.40;99.90;;;;;;5103722;27;20079;-96
2021/06/08 15:10:38;;;;;;;2.35;1.20;;;23.30;99.90;;;;;;5141789;27;20272;-96
2021/06/08 15:13:05;;;;;;;1.98;1.00;;;23.20;99.90;;;;;;5094958;27;20054;-96
2021/06/08 15:18:24;;;;;;;1.80;0.80;;;22.90;99.90;;;;;;5105266;27;20435;-96
2021/06/08 15:20:50;;;;;;;1.00;0.90;;;23.50;99.00;;;;;;5096141;27;20554;-96
2021/06/08 15:23:17;;;;;;;0.70;0.70;;;24.00;99.00;;;;;;5093730;27;20141;-95
2021/06/08 15:25:44;;;;;;;1.38;0.60;;;24.60;96.30;;;;;;5104828;27;20129;-96
2021/06/08 15:28:10;;;;;;;0.68;0.68;;;24.70;97.60;;;;;;5109558;27;20047;-96
2021/06/08 15:30:40;;;;;;;0.70;0.60;;;24.60;95.60;;;;;;5115193;27;20078;-94
2021/06/08 15:33:07;;;;;;;0.60;0.60;;;24.80;96.10;;;;;;5080483;27;20055;-95
2021/06/08 15:35:33;;;;;;;2.03;0.50;;;24.60;95.10;;;;;;5113309;27;20042;-95
2021/06/08 15:37:59;;;;;;;2.08;0.90;;;24.40;97.00;;;;;;5133572;27;20125;-94
2021/06/08 15:40:26;;;;;;;3.20;0.73;;;24.50;96.10;;;;;;5118865;27;20035;-92
2021/06/08 15:42:51;;;;;;;2.03;0.90;;;24.40;98.00;;;;;;5137548;27;20043;-93
2021/06/08 15:45:18;;;;;;;0.73;0.73;;;24.20;97.50;;;;;;5139656;27;20122;-94
2021/06/08 15:47:44;;;;;;;3.05;1.17;;;24.20;97.90;;;;;;5139379;27;20191;-94
2021/06/08 15:50:10;;;;;;;1.27;1.08;;;24.20;99.90;;;;;;5122137;27;20087;-93
2021/06/08 15:52:39;;;;;;;0.75;0.75;;;24.30;99.70;;;;;;5124789;27;20050;-91
2021/06/08 15:55:06;;;;;;;1.00;0.80;;;24.40;99.60;;;;;;5128624;27;20157;-92
2021/06/08 15:57:32;;;;;;;1.20;1.10;;;24.50;99.90;;;;;;5112954;27;20375;-93
2021/06/08 15:59:58;;;;;;;3.35;1.10;;;24.30;99.90;;;;;;5135433;27;20091;-96
2021/06/08 16:02:24;;;;;;;1.23;1.23;;;25.00;98.10;;;;;;5108701;27;20045;-93
2021/06/08 16:04:50;;;;;;;1.80;1.23;;;25.10;98.50;;;;;;5136150;27;20068;-92
2021/06/08 16:07:15;;;;;;;1.52;1.42;;;25.00;98.40;;;;;;5119311;27;20046;-92
2021/06/08 16:09:44;;;;;;;1.50;1.40;;;24.80;99.30;;;;;;5132374;27;20221;-92
2021/06/08 16:12:10;;;;;;;6.03;1.30;;;24.90;99.20;;;;;;5117524;27;20046;-92
2021/06/08 16:14:38;;;;;;;1.60;1.48;;;25.30;99.40;;;;;;5107382;27;20041;-92
2021/06/08 16:17:04;;;;;;;1.17;1.10;;;25.60;98.10;;;;;;5137259;27;20043;-92
2021/06/08 16:19:31;;;;;;;1.50;1.40;;;26.00;98.00;;;;;;5101792;27;20518;-93
2021/06/08 16:21:57;;;;;;;1.73;1.52;;;25.80;97.80;;;;;;5144013;27;20049;-91
2021/06/08 16:24:23;;;;;;;3.20;1.70;;;25.80;98.50;;;;;;5118784;27;20047;-93
2021/06/08 16:26:50;;;;;;;1.60;1.50;;;25.60;98.90;;;;;;5135710;27;20038;-92
2021/06/08 16:29:16;;;;;;;1.83;1.73;;;25.60;99.90;;;;;;5136114;27;20035;-93
2021/06/08 16:31:42;;;;;;;1.83;1.73;;;25.70;99.80;;;;;;5128960;27;20046;-93
2021/06/08 16:34:09;;;;;;;2.10;1.85;;;25.50;99.20;;;;;;5127488;27;20045;-92
2021/06/08 16:36:37;;;;;;;2.33;1.80;;;25.40;99.60;;;;;;5127602;27;20087;-91
2021/06/08 16:39:07;;;;;;;2.33;1.67;;;25.20;99.60;;;;;;5112272;27;20567;-90
2021/06/08 16:41:34;;;;;;;6.53;2.13;;;25.80;99.90;;;;;;5131967;27;20106;-91
2021/06/08 16:44:00;;;;;;;2.28;2.08;;;25.70;99.00;;;;;;5118548;27;20534;-91
2021/06/08 16:46:26;;;;;;;1.73;1.63;;;25.30;99.20;;;;;;5132078;27;20052;-90
2021/06/08 16:48:52;;;;;;;2.33;1.98;;;25.10;99.90;;;;;;5127807;27;20035;-89
2021/06/08 16:54:03;;;;;;;2.65;2.30;;;25.10;99.90;;;;;;5151053;27;20042;-90
2021/06/08 16:56:29;;;;;;;3.22;1.83;;;25.10;99.90;;;;;;5117993;27;20047;-90
2021/06/08 16:58:55;;;;;;;2.47;2.00;;;25.50;99.40;;;;;;5101751;27;20047;-91
2021/06/08 17:01:21;;;;;;;5.32;1.52;;;25.90;99.20;;;;;;5122195;27;20440;-90
2021/06/08 17:03:47;;;;;;;5.07;1.95;;;26.10;99.50;;;;;;5126716;27;20047;-91
2021/06/08 17:06:14;;;;;;;3.03;2.08;;;26.30;98.50;;;;;;5114245;27;20442;-90
2021/06/08 17:08:43;;;;;;;1.77;1.67;;;26.30;98.40;;;;;;5109134;27;20043;-89
2021/06/08 17:11:09;;;;;;;1.55;1.45;;;26.40;98.20;;;;;;5121609;27;20043;-89
2021/06/08 17:13:35;;;;;;;1.50;1.40;;;26.90;97.80;;;;;;5136107;27;20043;-92
2021/06/08 17:16:01;;;;;;;2.28;1.40;;;27.00;96.70;;;;;;5136109;27;20050;-92
2021/06/08 17:18:28;;;;;;;1.23;1.10;;;27.40;97.80;;;;;;5109452;27;20747;-90
2021/06/08 17:20:55;;;;;;;2.00;1.40;;;27.20;96.00;;;;;;5131989;27;20133;-91
2021/06/08 17:23:24;;;;;;;1.33;1.23;;;27.00;96.10;;;;;;5128356;27;20038;-91
2021/06/08 17:25:51;;;;;;;2.92;1.02;;;26.90;95.70;;;;;;5132798;27;20054;-92
2021/06/08 17:28:18;;;;;;;3.05;1.20;;;26.80;96.70;;;;;;5134685;27;20042;-91
2021/06/08 17:30:44;;;;;;;2.05;1.02;;;26.90;97.10;;;;;;5121740;27;20421;-90
2021/06/08 17:33:10;;;;;;;1.70;0.80;;;26.70;96.40;;;;;;5134849;27;20038;-91
2021/06/08 17:35:36;;;;;;;1.73;0.90;;;26.70;95.50;;;;;;5129257;27;20058;-93
2021/06/08 17:38:03;;;;;;;0.95;0.77;;;26.50;95.90;;;;;;5130016;27;20067;-91
2021/06/08 17:40:29;;;;;;;1.20;1.10;;;26.60;95.30;;;;;;5122553;27;20078;-91
2021/06/08 17:42:55;;;;;;;1.75;1.05;;;26.70;95.20;;;;;;5128442;27;20042;-89
2021/06/08 17:45:21;;;;;;;1.00;0.98;;;26.50;96.30;;;;;;5146026;27;20038;-92
2021/06/08 17:47:48;;;;;;;1.45;0.77;;;26.60;96.50;;;;;;5114230;27;20535;-93
2021/06/08 17:50:13;;;;;;;2.30;0.90;;;26.50;96.50;;;;;;5130218;27;20450;-91
2021/06/08 17:52:39;;;;;;;0.98;0.75;;;27.00;96.70;;;;;;5111745;27;20062;-95
2021/06/08 17:55:07;;;;;;;0.77;0.77;;;27.20;96.50;;;;;;5102933;27;20034;-93
2021/06/08 17:57:34;;;;;;;1.70;0.93;;;27.40;94.50;;;;;;5153000;27;20034;-92
2021/06/08 18:00:00;;;;;;;0.90;0.88;;;27.60;95.70;;;;;;5143382;27;20141;-93
2021/06/08 18:02:26;;;;;;;1.13;0.80;;;27.40;94.10;;;;;;5134741;27;20054;-92
2021/06/08 18:04:52;;;;;;;2.58;0.90;;;27.50;94.80;;;;;;5113652;27;20043;-92
2021/06/08 18:07:18;;;;;;;1.65;1.02;;;27.10;93.20;;;;;;5127260;27;20039;-92
2021/06/08 18:09:44;;;;;;;0.82;0.82;;;26.50;92.70;;;;;;5126909;27;20126;-95
2021/06/08 18:12:52;;;;;;;1.67;0.90;;;25.80;94.20;;;;;;5115952;27;20050;-96
2021/06/08 18:15:31;;;;;;;1.83;1.13;;;25.00;93.90;;;;;;5075127;28;20043;-96
2021/06/08 18:17:59;;;;;;;1.20;1.10;;;24.50;96.00;;;;;;5073146;28;20048;-93
2021/06/08 18:20:26;;;;;;;1.20;1.10;;;24.10;96.90;;;;;;5090351;28;20044;-93
2021/06/08 18:22:52;;;;;;;1.25;1.02;;;23.90;97.50;;;;;;5073686;28;20075;-94
2021/06/08 18:25:19;;;;;;;1.65;1.15;;;23.70;98.80;;;;;;5083134;28;20191;-94
2021/06/08 18:27:45;;;;;;;2.33;0.95;;;23.40;99.60;;;;;;5084992;28;20068;-93
2021/06/08 18:30:13;;;;;;;1.05;0.80;;;23.40;99.10;;;;;;5063783;28;20153;-94
2021/06/08 18:32:42;;;;;;;6.07;1.00;;;23.10;99.20;;;;;;5083366;28;20047;-92
2021/06/08 18:35:08;;;;;;;2.78;1.10;;;23.00;99.90;;;;;;5097542;28;20100;-95
2021/06/08 18:37:34;;;;;;;1.83;1.20;;;22.90;99.90;;;;;;5075590;28;20773;-93
2021/06/08 18:40:00;;;;;;;0.88;0.85;;;22.70;99.90;;;;;;5094550;27;20047;-94
2021/06/08 18:42:26;;;;;;;2.28;1.10;;;22.40;99.90;;;;;;5098306;27;20473;-93
2021/06/08 18:44:52;;;;;;;1.48;1.33;;;22.20;99.90;;;;;;5098133;27;20050;-93
2021/06/08 18:47:18;;;;;;;5.28;1.38;;;22.10;99.90;;;;;;5120582;27;20047;-93
2021/06/08 18:49:44;;;;;;;0.95;0.93;;;22.00;99.90;;;;;;5121258;27;20122;-96
2021/06/08 18:52:10;;;;;;;1.75;1.13;;;21.90;99.90;;;;;;5118979;27;20043;-93
2021/06/08 18:54:36;;;;;;;1.40;1.08;;;21.70;99.90;;;;;;5114643;27;20099;-93
2021/06/08 18:57:02;;;;;;;2.88;1.08;;;21.60;99.90;;;;;;5088482;27;20130;-93
2021/06/08 18:59:28;;;;;;;3.63;0.88;;;21.50;99.90;;;;;;5118980;27;20046;-93
2021/06/08 19:01:54;;;;;;;1.00;1.00;;;21.40;99.90;;;;;;5135162;27;20434;-93
2021/06/08 19:04:24;;;;;;;0.90;0.90;;;21.30;99.90;;;;;;5109435;27;20131;-94
2021/06/08 19:06:51;;;;;;;1.77;1.08;;;21.20;99.90;;;;;;5108356;27;20077;-93
2021/06/08 19:09:17;;;;;;;1.00;0.90;;;21.10;99.90;;;;;;5116333;28;20071;-94
2021/06/08 19:11:43;;;;;;;1.70;1.08;;;21.00;99.90;;;;;;5084843;28;20098;-95
2021/06/08 19:14:09;;;;;;;2.58;1.08;;;20.90;99.90;;;;;;5107268;28;20047;-95
2021/06/08 19:16:35;;;;;;;3.55;1.30;;;20.80;99.90;;;;;;5094700;28;20071;-93
2021/06/08 19:19:02;;;;;;;1.40;1.20;;;20.70;99.90;;;;;;5110386;28;20043;-94
2021/06/08 19:21:33;;;;;;;1.75;1.25;;;20.60;99.90;;;;;;5098114;28;20044;-94
2021/06/08 19:23:59;;;;;;;0.95;0.90;;;20.50;99.90;;;;;;5112140;28;20479;-94
2021/06/08 19:26:26;;;;;;;1.92;1.70;;;20.40;99.90;;;;;;5106640;28;20036;-92
2021/06/08 19:28:52;;;;;;;1.80;1.48;;;20.50;99.90;;;;;;5110324;28;20395;-95
2021/06/08 19:31:17;;;;;;;1.50;1.40;;;20.40;99.90;;;;;;5110809;28;20044;-92
2021/06/08 19:33:43;;;;;;;1.52;1.52;;;20.20;99.90;;;;;;5108310;28;20460;-93
2021/06/08 19:36:10;;;;;;;1.40;1.30;;;19.90;99.90;;;;;;5103940;28;20559;-93
2021/06/08 19:38:37;;;;;;;2.30;1.70;;;19.70;99.90;;;;;;5108461;28;20472;-93
2021/06/08 19:41:03;;;;;;;2.38;1.67;;;19.50;99.90;;;;;;5106319;28;20580;-93
2021/06/08 19:43:29;;;;;;;3.70;2.10;;;19.40;99.90;;;;;;5107249;28;20043;-93
2021/06/08 19:45:54;;;;;;;2.33;1.90;;;19.20;99.90;;;;;;5086703;28;20048;-93
2021/06/08 19:48:20;;;;;;;4.82;2.42;;;19.00;99.90;;;;;;5084833;28;20055;-93
2021/06/08 19:50:46;;;;;;;2.20;2.10;;;18.80;99.90;;;;;;5109689;28;20070;-94
2021/06/08 19:53:12;;;;;;;4.45;3.00;;;18.70;99.90;;;;;;5110707;28;20128;-93
2021/06/08 19:55:40;;;;;;;4.40;2.78;;;18.50;99.90;;;;;;5047263;28;20097;-94
2021/06/08 19:58:06;;;;;;;4.90;3.20;;;18.40;99.90;;;;;;5093441;28;20107;-94